createdAt,value
2022-12-22T00:01:59.338Z,98096.38
2022-12-22T00:04:44.402Z,98077.75
2022-12-22T00:07:29.101Z,98076.94
2022-12-22T00:10:13.893Z,98075.31
2022-12-22T00:12:58.611Z,98065.09
2022-12-22T00:15:43.838Z,98066.75
2022-12-22T00:18:35.666Z,98064.38
2022-12-22T00:21:20.375Z,98068.59
2022-12-22T00:24:05.258Z,98062.31
2022-12-22T00:26:52.747Z,98078.75
2022-12-22T00:29:37.987Z,98061.16
2022-12-22T00:32:23.826Z,98063.94
2022-12-22T00:35:10.120Z,98053.47
2022-12-22T00:37:56.456Z,98053.25
2022-12-22T00:40:46.715Z,98057.06
2022-12-22T00:43:32.649Z,98069.84
2022-12-22T00:46:20.852Z,98064.66
2022-12-22T00:49:06.887Z,98064.06
2022-12-22T00:51:52.679Z,98060.19
2022-12-22T00:54:39.954Z,98061.72
2022-12-22T00:57:25.219Z,98054.91
2022-12-22T01:00:17.149Z,98064.28
2022-12-22T01:03:02.049Z,98055.56
2022-12-22T01:05:47.257Z,98055.38
2022-12-22T01:08:32.655Z,98045.13
2022-12-22T01:11:17.311Z,98040.41
2022-12-22T01:14:02.112Z,98036.47
2022-12-22T01:16:46.927Z,98034.34
2022-12-22T01:19:31.720Z,98038.94
2022-12-22T01:22:16.929Z,98034.13
2022-12-22T01:25:02.606Z,98038.94
2022-12-22T01:27:47.466Z,98048.94
2022-12-22T01:30:32.754Z,98046.75
2022-12-22T01:33:17.840Z,98047.78
2022-12-22T01:36:02.620Z,98037.47
2022-12-22T01:38:47.383Z,98028.28
2022-12-22T01:41:38.868Z,98029.28
2022-12-22T01:44:36.858Z,98015.69
2022-12-22T01:47:58.705Z,98013.47
2022-12-22T01:50:52.493Z,98017.00
2022-12-22T01:53:41.839Z,98001.06
2022-12-22T01:56:27.339Z,98004.38
2022-12-22T01:59:16.095Z,98006.84
2022-12-22T02:02:02.678Z,98002.06
2022-12-22T02:04:55.336Z,97989.53
2022-12-22T02:08:25.830Z,97991.44
2022-12-22T02:11:23.448Z,98001.06
2022-12-22T02:14:30.303Z,97991.78
2022-12-22T02:17:53.195Z,97990.97
2022-12-22T02:20:44.188Z,97983.44
2022-12-22T02:23:41.570Z,97984.06
2022-12-22T02:27:06.187Z,97977.34
2022-12-22T02:29:55.409Z,97996.84
2022-12-22T02:32:44.297Z,97991.13
2022-12-22T02:35:31.816Z,97995.66
2022-12-22T02:38:45.293Z,97990.97
2022-12-22T02:41:59.979Z,97993.88
2022-12-22T02:45:27.023Z,97994.09
2022-12-22T02:48:22.760Z,97989.41
2022-12-22T02:51:17.597Z,97993.63
2022-12-22T02:54:04.221Z,97981.19
2022-12-22T02:56:49.213Z,97981.09
2022-12-22T02:59:34.028Z,97962.09
2022-12-22T03:02:19.617Z,97964.78
2022-12-22T03:05:04.795Z,97958.56
2022-12-22T03:07:49.711Z,97972.09
2022-12-22T03:10:34.430Z,97968.78
2022-12-22T03:13:19.553Z,97958.28
2022-12-22T03:16:04.397Z,97971.88
2022-12-22T03:18:49.236Z,97952.44
2022-12-22T03:21:34.456Z,97947.66
2022-12-22T03:24:19.154Z,97938.03
2022-12-22T03:26:45.520Z,97932.69
2022-12-22T03:29:11.907Z,97919.19
2022-12-22T03:31:38.351Z,97920.28
2022-12-22T03:34:04.752Z,97908.66
2022-12-22T03:36:31.479Z,97912.25
2022-12-22T03:38:57.900Z,97903.13
2022-12-22T03:41:47.454Z,97897.22
2022-12-22T03:44:32.255Z,97876.22
2022-12-22T03:46:58.676Z,97883.72
2022-12-22T03:49:26.156Z,97887.44
2022-12-22T03:51:53.741Z,97886.72
2022-12-22T03:54:22.333Z,97888.25
2022-12-22T03:56:49.477Z,97895.16
2022-12-22T03:59:16.604Z,97887.22
2022-12-22T04:01:45.723Z,97897.75
2022-12-22T04:04:14.448Z,97899.38
2022-12-22T04:06:42.543Z,97902.56
2022-12-22T04:09:09.317Z,97894.94
2022-12-22T04:11:54.384Z,97889.22
2022-12-22T04:14:21.605Z,97887.34
2022-12-22T04:16:48.354Z,97884.66
2022-12-22T04:19:15.979Z,97888.03
2022-12-22T04:21:43.407Z,97888.81
2022-12-22T04:24:11.854Z,97884.53
2022-12-22T04:26:38.766Z,97886.13
2022-12-22T04:29:05.249Z,97879.91
2022-12-22T04:31:31.772Z,97882.34
2022-12-22T04:33:58.511Z,97869.31
2022-12-22T04:36:24.884Z,97865.59
2022-12-22T04:38:51.488Z,97861.91
2022-12-22T04:41:17.867Z,97860.78
2022-12-22T04:43:44.301Z,97848.25
2022-12-22T04:46:10.825Z,97848.38
2022-12-22T04:48:37.308Z,97848.47
2022-12-22T04:51:03.956Z,97850.16
2022-12-22T04:53:30.980Z,97848.06
2022-12-22T04:56:03.250Z,97848.88
2022-12-22T04:58:30.747Z,97845.88
2022-12-22T05:00:57.283Z,97844.97
2022-12-22T05:03:24.923Z,97837.03
2022-12-22T05:05:51.585Z,97845.06
2022-12-22T05:08:18.009Z,97838.13
2022-12-22T05:10:44.629Z,97841.03
2022-12-22T05:13:11.118Z,97844.94
2022-12-22T05:15:37.717Z,97839.22
2022-12-22T05:18:04.488Z,97850.53
2022-12-22T05:20:31.107Z,97853.13
2022-12-22T05:22:59.515Z,97846.91
2022-12-22T05:25:29.929Z,97840.69
2022-12-22T05:27:59.462Z,97842.28
2022-12-22T05:30:26.440Z,97835.19
2022-12-22T05:32:52.908Z,97843.78
2022-12-22T05:35:19.434Z,97829.16
2022-12-22T05:37:45.885Z,97840.47
2022-12-22T05:40:12.787Z,97845.59
2022-12-22T05:42:39.477Z,97834.13
2022-12-22T05:45:07.675Z,97833.72
2022-12-22T05:47:34.485Z,97829.91
2022-12-22T05:50:00.947Z,97832.72
2022-12-22T05:52:27.944Z,97841.94
2022-12-22T05:54:54.426Z,97836.75
2022-12-22T05:57:20.936Z,97834.50
2022-12-22T05:59:47.464Z,97832.91
2022-12-22T06:02:14.041Z,97837.16
2022-12-22T06:04:40.570Z,97831.38
2022-12-22T06:07:07.117Z,97813.16
2022-12-22T06:09:33.447Z,97829.81
2022-12-22T06:11:59.791Z,97819.06
2022-12-22T06:14:26.240Z,97821.00
2022-12-22T06:16:52.665Z,97829.09
2022-12-22T06:19:19.009Z,97831.00
2022-12-22T06:21:45.606Z,97824.81
2022-12-22T06:24:12.031Z,97821.56
2022-12-22T06:26:38.467Z,97821.56
2022-12-22T06:29:04.884Z,97819.97
2022-12-22T06:31:31.318Z,97823.00
2022-12-22T06:33:57.787Z,97822.19
2022-12-22T06:36:24.221Z,97825.41
2022-12-22T06:38:50.607Z,97822.09
2022-12-22T06:41:36.986Z,97824.38
2022-12-22T06:44:03.415Z,97828.19
2022-12-22T06:46:29.845Z,97825.50
2022-12-22T06:48:56.318Z,97824.56
2022-12-22T06:51:22.656Z,97824.56
2022-12-22T06:53:49.078Z,97819.94
2022-12-22T06:56:15.558Z,97825.09
2022-12-22T06:58:41.901Z,97818.03
2022-12-22T07:01:08.273Z,97831.56
2022-12-22T07:03:34.759Z,97826.78
2022-12-22T07:06:01.238Z,97838.09
2022-12-22T07:08:27.625Z,97840.69
2022-12-22T07:11:00.157Z,97853.03
2022-12-22T07:13:33.983Z,97859.41
2022-12-22T07:16:02.421Z,97867.03
2022-12-22T07:18:31.271Z,97867.25
2022-12-22T07:20:59.560Z,97873.16
2022-12-22T07:23:26.453Z,97869.03
2022-12-22T07:25:52.888Z,97864.72
2022-12-22T07:28:21.267Z,97854.50
2022-12-22T07:30:49.465Z,97853.72
2022-12-22T07:33:16.047Z,97864.81
2022-12-22T07:35:42.488Z,97876.75
2022-12-22T07:38:08.899Z,97874.84
2022-12-22T07:40:39.595Z,97879.38
2022-12-22T07:43:08.154Z,97879.84
2022-12-22T07:45:34.577Z,97876.03
2022-12-22T07:48:02.159Z,97880.66
2022-12-22T07:50:28.663Z,97882.56
2022-12-22T07:52:56.390Z,97894.69
2022-12-22T07:55:24.528Z,97894.66
2022-12-22T07:57:52.180Z,97892.84
2022-12-22T08:00:19.359Z,97887.41
2022-12-22T08:02:55.155Z,97865.63
2022-12-22T08:05:23.048Z,97860.81
2022-12-22T08:07:50.767Z,97883.41
2022-12-22T08:10:18.929Z,97889.63
2022-12-22T08:12:45.986Z,97888.03
2022-12-22T08:15:12.716Z,97901.06
2022-12-22T08:17:39.392Z,97887.66
2022-12-22T08:20:06.580Z,97885.44
2022-12-22T08:22:33.028Z,97884.31
2022-12-22T08:24:59.424Z,97891.44
2022-12-22T08:27:40.541Z,97898.28
2022-12-22T08:30:08.543Z,97892.69
2022-12-22T08:32:37.061Z,97892.38
2022-12-22T08:35:05.147Z,97884.75
2022-12-22T08:37:35.646Z,97878.03
2022-12-22T08:40:06.636Z,97878.03
2022-12-22T08:42:33.835Z,97882.03
2022-12-22T08:45:00.265Z,97877.31
2022-12-22T08:47:26.710Z,97885.94
2022-12-22T08:49:53.236Z,97884.31
2022-12-22T08:52:19.763Z,97882.09
2022-12-22T08:54:46.606Z,97873.50
2022-12-22T08:57:13.071Z,97881.00
2022-12-22T08:59:39.482Z,97883.41
2022-12-22T09:02:06.125Z,97866.38
2022-12-22T09:04:33.843Z,97864.75
2022-12-22T09:07:02.391Z,97874.50
2022-12-22T09:09:34.498Z,97880.88
2022-12-22T09:12:02.206Z,97886.38
2022-12-22T09:14:29.468Z,97882.78
2022-12-22T09:16:56.531Z,97881.25
2022-12-22T09:19:23.037Z,97896.28
2022-12-22T09:21:49.526Z,97893.13
2022-12-22T09:24:16.169Z,97899.84
2022-12-22T09:26:43.029Z,97895.34
2022-12-22T09:29:09.983Z,97890.69
2022-12-22T09:31:36.740Z,97899.03
2022-12-22T09:34:03.248Z,97905.47
2022-12-22T09:36:31.185Z,97907.47
2022-12-22T09:38:57.703Z,97908.91
2022-12-22T09:41:34.760Z,97914.91
2022-12-22T09:44:13.596Z,97923.94
2022-12-22T09:46:40.668Z,97916.34
2022-12-22T09:49:07.585Z,97918.41
2022-12-22T09:51:46.509Z,97922.53
2022-12-22T09:54:14.130Z,97923.94
2022-12-22T09:56:40.771Z,97905.91
2022-12-22T09:59:19.199Z,97911.75
2022-12-22T10:02:10.758Z,97910.75
2022-12-22T10:05:05.248Z,97915.34
2022-12-22T10:07:42.750Z,97915.03
2022-12-22T10:10:12.780Z,97914.56
2022-12-22T10:12:39.192Z,97922.69
2022-12-22T10:15:15.469Z,97919.34
2022-12-22T10:17:44.874Z,97924.19
2022-12-22T10:20:26.392Z,97927.06
2022-12-22T10:23:01.031Z,97935.38
2022-12-22T10:26:17.383Z,97943.41
2022-12-22T10:28:36.078Z,97943.28
2022-12-22T10:31:21.040Z,97941.59
2022-12-22T10:33:50.075Z,97944.28
2022-12-22T10:36:25.319Z,97959.44
2022-12-22T10:38:59.537Z,97957.03
2022-12-22T10:41:29.544Z,97967.88
2022-12-22T10:43:59.095Z,97956.22
2022-12-22T10:46:38.826Z,97953.03
2022-12-22T10:49:15.148Z,97945.41
2022-12-22T10:51:44.158Z,97945.88
2022-12-22T10:54:24.564Z,97947.00
2022-12-22T10:57:14.241Z,97949.22
2022-12-22T10:59:53.743Z,97949.22
2022-12-22T11:02:34.557Z,97942.69
2022-12-22T11:05:10.261Z,97932.16
2022-12-22T11:07:39.946Z,97932.16
2022-12-22T11:10:15.300Z,97936.78
2022-12-22T11:13:08.291Z,97930.25
2022-12-22T11:16:00.784Z,97934.56
2022-12-22T11:18:45.949Z,97925.31
2022-12-22T11:21:46.513Z,97928.72
2022-12-22T11:24:30.002Z,97921.31
2022-12-22T11:27:05.304Z,97924.53
2022-12-22T11:29:37.562Z,97924.41
2022-12-22T11:32:06.844Z,97931.91
2022-12-22T11:34:46.030Z,97941.03
2022-12-22T11:37:29.849Z,97930.69
2022-12-22T11:40:09.435Z,97933.88
2022-12-22T11:42:55.257Z,97934.41
2022-12-22T11:45:44.770Z,97941.09
2022-12-22T11:48:29.626Z,97941.59
2022-12-22T11:51:08.500Z,97939.69
2022-12-22T11:53:39.912Z,97944.19
2022-12-22T11:56:18.687Z,97935.94
2022-12-22T11:59:06.157Z,97938.22
2022-12-22T12:01:43.445Z,97932.06
2022-12-22T12:04:22.164Z,97944.38
2022-12-22T12:07:02.644Z,97935.19
2022-12-22T12:09:55.942Z,97941.78
2022-12-22T12:12:40.596Z,97944.34
2022-12-22T12:15:51.746Z,97943.91
2022-12-22T12:18:27.109Z,97946.81
2022-12-22T12:20:56.369Z,97943.97
2022-12-22T12:23:44.675Z,97958.38
2022-12-22T12:26:19.309Z,97953.44
2022-12-22T12:29:14.649Z,97959.28
2022-12-22T12:32:05.470Z,97950.72
2022-12-22T12:34:35.640Z,97947.88
2022-12-22T12:37:12.523Z,97955.84
2022-12-22T12:39:45.517Z,97957.09
2022-12-22T12:42:20.879Z,97972.72
2022-12-22T12:44:48.027Z,97967.59
2022-12-22T12:47:20.158Z,97974.88
2022-12-22T12:49:58.799Z,97966.38
2022-12-22T12:52:49.917Z,97972.78
2022-12-22T12:55:34.420Z,97985.06
2022-12-22T12:58:03.879Z,97970.34
2022-12-22T13:00:33.798Z,97979.50
2022-12-22T13:03:01.672Z,97982.69
2022-12-22T13:05:36.627Z,97990.69
2022-12-22T13:08:31.642Z,98000.44
2022-12-22T13:10:57.969Z,97999.22
2022-12-22T13:13:24.723Z,98000.66
2022-12-22T13:16:00.457Z,98001.56
2022-12-22T13:18:28.360Z,98018.97
2022-12-22T13:21:52.316Z,98017.97
2022-12-22T13:24:28.559Z,98033.31
2022-12-22T13:27:01.728Z,98031.84
2022-12-22T13:29:41.255Z,98037.28
2022-12-22T13:32:28.495Z,98041.59
2022-12-22T13:37:54.070Z,98046.38
2022-12-22T13:40:32.015Z,98045.25
2022-12-22T13:43:11.369Z,98046.09
2022-12-22T13:45:41.278Z,98043.06
2022-12-22T13:48:30.504Z,98039.72
2022-12-22T13:51:00.664Z,98034.63
2022-12-22T13:54:08.530Z,98045.50
2022-12-22T13:56:40.534Z,98043.09
2022-12-22T13:59:20.818Z,98057.78
2022-12-22T14:01:51.773Z,98060.31
2022-12-22T14:04:18.467Z,98065.25
2022-12-22T14:06:44.872Z,98063.66
2022-12-22T14:09:20.321Z,98069.41
2022-12-22T14:11:57.955Z,98065.72
2022-12-22T14:14:27.974Z,98071.94
2022-12-22T14:16:57.504Z,98072.72
2022-12-22T14:19:25.568Z,98057.56
2022-12-22T14:22:05.628Z,98068.75
2022-12-22T14:24:38.619Z,98066.81
2022-12-22T14:27:06.685Z,98068.91
2022-12-22T14:29:33.352Z,98077.13
2022-12-22T14:32:02.665Z,98070.63
2022-12-22T14:34:34.949Z,98067.00
2022-12-22T14:37:02.183Z,98072.41
2022-12-22T14:39:31.906Z,98071.09
2022-12-22T14:42:01.372Z,98072.66
2022-12-22T14:44:42.136Z,98074.88
2022-12-22T14:47:17.939Z,98069.22
2022-12-22T14:49:50.648Z,98080.03
2022-12-22T14:52:26.451Z,98084.19
2022-12-22T14:54:54.588Z,98086.06
2022-12-22T14:57:40.335Z,98088.50
2022-12-22T15:00:26.740Z,98100.16
2022-12-22T15:02:56.272Z,98099.97
2022-12-22T15:05:38.931Z,98094.38
2022-12-22T15:08:08.874Z,98098.63
2022-12-22T15:10:42.833Z,98102.25
2022-12-22T15:13:19.282Z,98115.13
2022-12-22T15:15:45.749Z,98119.28
2022-12-22T15:18:14.469Z,98119.41
2022-12-22T15:20:41.157Z,98120.31
2022-12-22T15:23:14.692Z,98115.03
2022-12-22T15:25:41.223Z,98118.34
2022-12-22T15:28:07.749Z,98116.84
2022-12-22T15:30:35.463Z,98123.47
2022-12-22T15:33:03.547Z,98115.66
2022-12-22T15:35:31.453Z,98120.28
2022-12-22T15:37:59.010Z,98116.56
2022-12-22T15:40:27.562Z,98125.81
2022-12-22T15:43:56.585Z,98124.84
2022-12-22T15:46:31.472Z,98136.59
2022-12-22T15:52:16.763Z,98134.28
2022-12-22T16:00:35.942Z,98138.81
2022-12-22T16:03:14.321Z,98136.44
2022-12-22T16:06:32.826Z,98123.78
2022-12-22T16:09:49.979Z,98124.19
2022-12-22T16:12:20.220Z,98120.97
2022-12-22T16:15:02.568Z,98119.16
2022-12-22T16:17:42.431Z,98122.78
2022-12-22T16:23:27.870Z,98123.69
2022-12-22T16:26:04.497Z,98124.28
2022-12-22T16:32:06.358Z,98116.25
2022-12-22T16:35:01.490Z,98113.53
2022-12-22T16:37:37.718Z,98117.97
2022-12-22T16:40:09.922Z,98102.28
2022-12-22T16:46:32.277Z,98111.41
2022-12-22T16:49:36.898Z,98110.38
2022-12-22T17:02:35.541Z,98113.47
2022-12-22T17:05:29.010Z,98116.41
2022-12-22T17:15:05.343Z,98105.09
2022-12-22T17:21:20.351Z,98100.56
2022-12-22T17:24:06.974Z,98095.94
2022-12-22T17:27:06.270Z,98097.88
2022-12-22T17:29:40.231Z,98087.03
2022-12-22T17:32:32.685Z,98087.63
2022-12-22T17:35:09.236Z,98080.59
2022-12-22T17:38:27.907Z,98084.41
2022-12-22T17:44:22.394Z,98064.97
2022-12-22T17:47:42.590Z,98069.88
2022-12-22T17:53:59.075Z,98059.84
2022-12-22T18:00:43.030Z,98050.63
2022-12-22T18:03:29.427Z,98041.41
2022-12-22T18:06:32.375Z,98040.09
2022-12-22T18:10:26.089Z,98029.06
2022-12-22T18:16:28.611Z,98014.72
2022-12-22T18:23:02.553Z,98009.81
2022-12-22T18:26:09.292Z,98013.03
2022-12-22T18:28:58.761Z,98013.53
2022-12-22T18:32:22.924Z,98004.28
2022-12-22T18:35:17.701Z,98003.19
2022-12-22T18:38:22.031Z,97995.38
2022-12-22T18:44:19.400Z,97983.13
2022-12-22T18:48:29.300Z,97985.56
2022-12-22T18:51:44.011Z,97986.84
2022-12-22T18:54:44.604Z,97986.22
2022-12-22T18:57:17.925Z,97984.84
2022-12-22T19:00:04.586Z,97979.09
2022-12-22T19:03:32.252Z,97981.03
2022-12-22T19:06:42.841Z,97972.69
2022-12-22T19:09:36.354Z,97971.88
2022-12-22T19:13:00.229Z,97969.47
2022-12-22T19:15:52.167Z,97963.75
2022-12-22T19:18:44.469Z,97959.13
2022-12-22T19:21:31.724Z,97963.06
2022-12-22T19:24:17.963Z,97950.31
2022-12-22T19:26:57.773Z,97949.81
2022-12-22T19:29:40.160Z,97950.44
2022-12-22T19:36:31.666Z,97942.31
2022-12-22T19:39:13.325Z,97943.69
2022-12-22T19:42:00.804Z,97943.41
2022-12-22T19:44:45.031Z,97943.41
2022-12-22T19:55:20.384Z,97926.78
2022-12-22T19:56:09.906Z,97920.75
2022-12-22T19:58:05.569Z,97921.94
2022-12-22T20:00:43.542Z,97915.56
2022-12-22T20:03:13.251Z,97911.22
2022-12-22T20:05:40.177Z,97905.31
2022-12-22T20:08:07.061Z,97905.63
2022-12-22T20:10:35.750Z,97912.97
2022-12-22T20:13:05.264Z,97908.34
2022-12-22T20:15:37.969Z,97906.44
2022-12-22T20:18:23.254Z,97897.31
2022-12-22T20:21:01.963Z,97892.50
2022-12-22T20:23:30.704Z,97906.66
2022-12-22T20:26:00.163Z,97900.72
2022-12-22T20:28:28.648Z,97902.94
2022-12-22T20:30:55.727Z,97888.41
2022-12-22T20:33:23.888Z,97892.22
2022-12-22T20:35:52.381Z,97886.31
2022-12-22T20:38:20.218Z,97880.91
2022-12-22T20:40:49.186Z,97882.50
2022-12-22T20:43:19.001Z,97873.28
2022-12-22T20:45:48.210Z,97880.91
2022-12-22T20:48:21.091Z,97872.31
2022-12-22T20:50:47.592Z,97863.66
2022-12-22T20:53:18.775Z,97863.66
2022-12-22T20:55:45.756Z,97864.47
2022-12-22T20:58:17.641Z,97863.06
2022-12-22T21:00:44.181Z,97862.75
2022-12-22T21:03:10.925Z,97854.03
2022-12-22T21:05:37.529Z,97842.59
2022-12-22T21:08:04.269Z,97844.19
2022-12-22T21:10:30.832Z,97841.97
2022-12-22T21:12:57.250Z,97840.88
2022-12-22T21:15:25.968Z,97840.59
2022-12-22T21:17:58.200Z,97837.25
2022-12-22T21:20:27.884Z,97833.97
2022-12-22T21:22:54.561Z,97827.94
2022-12-22T21:25:21.063Z,97823.31
2022-12-22T21:27:50.046Z,97822.50
2022-12-22T21:30:21.895Z,97829.03
2022-12-22T21:32:49.329Z,97825.84
2022-12-22T21:35:22.752Z,97826.13
2022-12-22T21:37:52.321Z,97825.31
2022-12-22T21:40:24.371Z,97812.41
2022-12-22T21:42:51.926Z,97817.34
2022-12-22T21:45:21.318Z,97812.53
2022-12-22T21:47:48.269Z,97807.09
2022-12-22T21:50:20.565Z,97800.59
2022-12-22T21:52:50.292Z,97793.09
2022-12-22T21:55:21.991Z,97781.25
2022-12-22T21:57:48.549Z,97776.47
2022-12-22T22:00:17.383Z,97761.94
2022-12-22T22:02:44.501Z,97759.66
2022-12-22T22:05:25.968Z,97754.34
2022-12-22T22:07:53.098Z,97749.88
2022-12-22T22:10:24.890Z,97747.75
2022-12-22T22:12:52.075Z,97748.88
2022-12-22T22:15:19.802Z,97740.28
2022-12-22T22:17:47.180Z,97744.09
2022-12-22T22:20:18.299Z,97729.56
2022-12-22T22:22:46.790Z,97723.66
2022-12-22T22:25:15.188Z,97716.13
2022-12-22T22:27:47.467Z,97711.56
2022-12-22T22:30:21.779Z,97700.22
2022-12-22T22:32:49.298Z,97688.59
2022-12-22T22:35:16.505Z,97694.03
2022-12-22T22:37:44.394Z,97691.31
2022-12-22T22:40:13.590Z,97681.13
2022-12-22T22:42:41.059Z,97682.22
2022-12-22T22:45:08.666Z,97680.59
2022-12-22T22:47:35.248Z,97681.72
2022-12-22T22:50:06.820Z,97674.41
2022-12-22T22:52:33.769Z,97662.00
2022-12-22T22:55:00.444Z,97655.78
2022-12-22T22:57:27.089Z,97647.66
2022-12-22T22:59:53.534Z,97649.88
2022-12-22T23:02:20.234Z,97634.78
2022-12-22T23:04:46.907Z,97631.56
2022-12-22T23:07:13.489Z,97625.06
2022-12-22T23:09:39.894Z,97630.47
2022-12-22T23:12:06.424Z,97626.66
2022-12-22T23:14:32.892Z,97630.66
2022-12-22T23:16:59.288Z,97626.03
2022-12-22T23:19:26.418Z,97623.81
2022-12-22T23:21:52.810Z,97610.28
2022-12-22T23:24:19.179Z,97611.41
2022-12-22T23:26:45.579Z,97614.91
2022-12-22T23:29:11.990Z,97606.00
2022-12-22T23:31:38.505Z,97603.28
2022-12-22T23:34:05.004Z,97597.88
2022-12-22T23:36:32.072Z,97600.28
2022-12-22T23:38:58.785Z,97590.28
2022-12-22T23:41:25.230Z,97588.38
2022-12-22T23:43:53.334Z,97589.66
2022-12-22T23:46:19.840Z,97582.03
2022-12-22T23:48:51.194Z,97583.63
2022-12-22T23:51:17.627Z,97583.03
2022-12-22T23:53:44.046Z,97573.81
2022-12-22T23:56:10.665Z,97573.31
2022-12-22T23:58:37.446Z,97586.22
